createdAt,value
2018-08-10T00:01:41.284Z,16.35
2018-08-10T00:04:11.250Z,16.16
2018-08-10T00:06:41.144Z,16.15
2018-08-10T00:09:12.267Z,16.14
2018-08-10T00:11:42.406Z,15.90
2018-08-10T00:14:12.262Z,15.87
2018-08-10T00:16:42.117Z,15.95
2018-08-10T00:19:11.921Z,16.09
2018-08-10T00:21:41.627Z,16.12
2018-08-10T00:24:12.043Z,16.26
2018-08-10T00:26:41.869Z,16.24
2018-08-10T00:29:11.670Z,16.09
2018-08-10T00:31:41.466Z,16.22
2018-08-10T00:34:11.205Z,16.14
2018-08-10T00:36:41.142Z,16.11
2018-08-10T00:39:13.604Z,16.21
2018-08-10T00:41:44.325Z,16.01
2018-08-10T00:44:14.290Z,16.06
2018-08-10T00:46:44.211Z,15.99
2018-08-10T00:49:13.928Z,16.02
2018-08-10T00:51:43.869Z,16.07
2018-08-10T00:54:13.649Z,16.06
2018-08-10T00:56:43.337Z,16.11
2018-08-10T00:59:13.100Z,15.98
2018-08-10T01:01:42.997Z,16.06
2018-08-10T01:04:12.918Z,16.21
2018-08-10T01:06:42.653Z,16.11
2018-08-10T01:09:13.381Z,16.35
2018-08-10T01:11:43.393Z,16.26
2018-08-10T01:14:13.553Z,16.27
2018-08-10T01:16:43.272Z,16.41
2018-08-10T01:19:13.230Z,16.52
2018-08-10T01:21:42.874Z,16.44
2018-08-10T01:24:12.640Z,16.21
2018-08-10T01:26:42.504Z,16.14
2018-08-10T01:29:12.396Z,16.13
2018-08-10T01:31:42.327Z,16.21
2018-08-10T01:34:12.119Z,16.17
2018-08-10T01:36:41.898Z,16.20
2018-08-10T01:39:12.480Z,16.19
2018-08-10T01:41:42.408Z,16.00
2018-08-10T01:44:12.265Z,15.90
2018-08-10T01:46:42.052Z,15.86
2018-08-10T01:49:11.765Z,15.80
2018-08-10T01:51:41.617Z,15.76
2018-08-10T01:54:11.325Z,15.74
2018-08-10T01:56:41.166Z,15.64
2018-08-10T01:59:10.913Z,15.50
2018-08-10T02:01:40.761Z,15.58
2018-08-10T02:04:10.537Z,15.43
2018-08-10T02:06:40.406Z,15.53
2018-08-10T02:09:11.283Z,15.52
2018-08-10T02:11:40.932Z,15.44
2018-08-10T02:14:10.631Z,15.46
2018-08-10T02:16:40.483Z,15.42
2018-08-10T02:19:10.094Z,15.40
2018-08-10T02:21:39.822Z,15.59
2018-08-10T02:24:09.516Z,15.61
2018-08-10T02:26:39.487Z,15.38
2018-08-10T02:29:09.345Z,15.26
2018-08-10T02:31:39.009Z,15.15
2018-08-10T02:34:08.785Z,15.18
2018-08-10T02:36:38.787Z,15.27
2018-08-10T02:39:11.730Z,15.16
2018-08-10T02:41:41.494Z,15.15
2018-08-10T02:44:11.253Z,15.32
2018-08-10T02:46:40.971Z,15.21
2018-08-10T02:49:10.886Z,15.18
2018-08-10T02:51:40.576Z,15.04
2018-08-10T02:54:10.537Z,15.06
2018-08-10T02:56:40.273Z,15.12
2018-08-10T02:59:09.957Z,15.00
2018-08-10T03:01:39.693Z,14.90
2018-08-10T03:04:09.480Z,14.92
2018-08-10T03:06:39.188Z,14.85
2018-08-10T03:09:10.766Z,14.81
2018-08-10T03:11:40.573Z,14.79
2018-08-10T03:14:10.265Z,14.76
2018-08-10T03:16:39.885Z,14.81
2018-08-10T03:19:09.597Z,14.82
2018-08-10T03:21:39.304Z,14.93
2018-08-10T03:24:08.966Z,15.01
2018-08-10T03:26:38.807Z,15.09
2018-08-10T03:29:08.710Z,14.91
2018-08-10T03:31:38.502Z,14.89
2018-08-10T03:34:08.195Z,14.88
2018-08-10T03:36:38.037Z,14.97
2018-08-10T03:39:11.576Z,14.87
2018-08-10T03:41:41.716Z,14.82
2018-08-10T03:44:11.393Z,14.90
2018-08-10T03:46:41.031Z,14.87
2018-08-10T03:49:10.749Z,14.91
2018-08-10T03:51:40.411Z,14.84
2018-08-10T03:54:10.221Z,14.82
2018-08-10T03:56:39.910Z,14.99
2018-08-10T03:59:09.661Z,14.90
2018-08-10T04:01:39.360Z,14.80
2018-08-10T04:04:09.156Z,14.75
2018-08-10T04:06:38.833Z,14.71
2018-08-10T04:09:13.234Z,14.69
2018-08-10T04:11:43.592Z,14.69
2018-08-10T04:14:13.306Z,14.66
2018-08-10T04:16:43.006Z,14.68
2018-08-10T04:19:12.926Z,14.64
2018-08-10T04:21:42.634Z,14.85
2018-08-10T04:24:12.270Z,14.81
2018-08-10T04:26:41.941Z,14.82
2018-08-10T04:29:11.689Z,14.81
2018-08-10T04:31:41.487Z,14.82
2018-08-10T04:34:11.295Z,14.85
2018-08-10T04:36:40.993Z,14.69
2018-08-10T04:39:13.452Z,14.66
2018-08-10T04:41:43.832Z,14.71
2018-08-10T04:44:13.568Z,14.77
2018-08-10T04:46:43.295Z,14.80
2018-08-10T04:49:13.030Z,14.79
2018-08-10T04:51:42.969Z,14.84
2018-08-10T04:54:12.749Z,14.94
2018-08-10T04:56:42.557Z,14.92
2018-08-10T04:59:12.285Z,14.97
2018-08-10T05:01:42.441Z,14.93
2018-08-10T05:04:12.144Z,15.04
2018-08-10T05:06:41.780Z,15.12
2018-08-10T05:09:13.134Z,15.26
2018-08-10T05:11:43.919Z,15.36
2018-08-10T05:14:13.689Z,15.35
2018-08-10T05:16:43.616Z,15.63
2018-08-10T05:19:13.364Z,15.45
2018-08-10T05:21:43.225Z,15.54
2018-08-10T05:24:13.126Z,15.48
2018-08-10T05:26:42.850Z,15.57
2018-08-10T05:29:12.535Z,15.58
2018-08-10T05:31:42.749Z,15.87
2018-08-10T05:34:12.554Z,15.99
2018-08-10T05:36:42.581Z,16.00
2018-08-10T05:39:13.016Z,16.06
2018-08-10T05:41:43.299Z,16.13
2018-08-10T05:44:13.005Z,16.16
2018-08-10T05:46:43.456Z,16.34
2018-08-10T05:49:13.165Z,16.40
2018-08-10T05:51:42.864Z,16.48
2018-08-10T05:54:12.724Z,16.46
2018-08-10T05:56:42.436Z,16.45
2018-08-10T05:59:12.086Z,16.34
2018-08-10T06:01:42.167Z,16.45
2018-08-10T06:04:11.851Z,16.64
2018-08-10T06:06:41.640Z,16.92
2018-08-10T06:09:13.928Z,16.93
2018-08-10T06:11:44.812Z,17.22
2018-08-10T06:14:15.333Z,17.36
2018-08-10T06:16:45.236Z,17.05
2018-08-10T06:19:15.047Z,17.37
2018-08-10T06:21:44.920Z,17.54
2018-08-10T06:24:14.529Z,17.68
2018-08-10T06:26:44.311Z,17.91
2018-08-10T06:29:13.989Z,18.10
2018-08-10T06:31:43.770Z,18.33
2018-08-10T06:34:13.628Z,18.40
2018-08-10T06:36:43.268Z,18.80
2018-08-10T06:39:13.059Z,18.93
2018-08-10T06:41:42.833Z,19.13
2018-08-10T06:44:12.732Z,19.53
2018-08-10T06:46:42.530Z,19.48
2018-08-10T06:49:12.480Z,19.75
2018-08-10T06:51:42.153Z,19.83
2018-08-10T06:54:11.884Z,20.09
2018-08-10T06:56:41.800Z,20.98
2018-08-10T06:59:11.459Z,21.92
2018-08-10T07:01:41.242Z,22.50
2018-08-10T07:04:10.956Z,21.80
2018-08-10T07:06:41.219Z,22.77
2018-08-10T07:09:12.481Z,23.68
2018-08-10T07:11:42.883Z,24.66
2018-08-10T07:14:13.366Z,24.49
2018-08-10T07:16:43.800Z,24.69
2018-08-10T07:19:13.833Z,24.51
2018-08-10T07:21:44.000Z,25.46
2018-08-10T07:24:14.043Z,23.27
2018-08-10T07:26:44.319Z,22.27
2018-08-10T07:29:14.093Z,22.98
2018-08-10T07:31:43.757Z,21.92
2018-08-10T07:34:13.509Z,21.95
2018-08-10T07:36:43.168Z,22.04
2018-08-10T07:39:13.605Z,21.67
2018-08-10T07:41:43.609Z,22.03
2018-08-10T07:44:13.286Z,21.38
2018-08-10T07:46:42.976Z,22.86
2018-08-10T07:49:12.940Z,23.04
2018-08-10T07:51:42.671Z,24.72
2018-08-10T07:54:12.469Z,25.14
2018-08-10T07:56:42.125Z,25.71
2018-08-10T07:59:11.915Z,25.50
2018-08-10T08:01:41.582Z,24.83
2018-08-10T08:04:11.530Z,26.44
2018-08-10T08:06:41.343Z,27.11
2018-08-10T08:09:12.905Z,25.51
2018-08-10T08:11:43.004Z,24.92
2018-08-10T08:14:12.710Z,23.49
2018-08-10T08:16:42.652Z,22.34
2018-08-10T08:19:12.349Z,22.79
2018-08-10T08:22:22.902Z,22.66
2018-08-10T08:24:52.694Z,23.19
2018-08-10T08:27:22.452Z,24.30
2018-08-10T08:29:52.155Z,24.91
2018-08-10T08:32:21.922Z,25.44
2018-08-10T08:34:51.786Z,23.76
2018-08-10T08:37:21.452Z,24.35
2018-08-10T08:40:25.580Z,25.85
2018-08-10T08:42:55.313Z,24.99
2018-08-10T08:46:07.806Z,24.71
2018-08-10T08:48:41.053Z,24.94
2018-08-10T08:51:29.360Z,26.31
2018-08-10T08:54:15.922Z,26.60
2018-08-10T08:56:45.719Z,27.44
2018-08-10T08:59:15.414Z,27.86
2018-08-10T09:01:45.232Z,27.30
2018-08-10T09:04:33.562Z,26.50
2018-08-10T09:07:03.396Z,27.40
2018-08-10T09:09:39.279Z,28.15
2018-08-10T09:12:08.959Z,27.66
2018-08-10T09:14:46.099Z,28.12
2018-08-10T09:17:16.003Z,28.45
2018-08-10T09:19:45.541Z,28.62
2018-08-10T09:22:15.196Z,26.62
2018-08-10T09:24:44.902Z,28.00
2018-08-10T09:27:14.808Z,27.04
2018-08-10T09:29:44.659Z,25.48
2018-08-10T09:32:14.503Z,26.63
2018-08-10T09:34:44.333Z,26.90
2018-08-10T09:37:14.252Z,28.05
2018-08-10T09:39:44.165Z,30.26
2018-08-10T09:42:14.110Z,27.33
2018-08-10T09:44:43.775Z,27.14
2018-08-10T09:47:13.505Z,25.20
2018-08-10T09:49:48.375Z,25.17
2018-08-10T09:52:18.342Z,26.97
2018-08-10T09:55:28.010Z,26.64
2018-08-10T09:58:14.616Z,26.44
2018-08-10T10:00:49.480Z,26.96
2018-08-10T10:03:21.448Z,28.95
2018-08-10T10:05:52.302Z,30.29
2018-08-10T10:08:22.485Z,30.03
2018-08-10T10:10:52.340Z,28.90
2018-08-10T10:13:22.051Z,28.81
2018-08-10T10:15:51.867Z,29.99
2018-08-10T10:18:21.574Z,30.01
2018-08-10T10:20:51.244Z,29.36
2018-08-10T10:23:21.018Z,30.76
2018-08-10T10:25:50.709Z,31.05
2018-08-10T10:28:20.509Z,28.37
2018-08-10T10:30:50.189Z,26.67
2018-08-10T10:33:20.073Z,26.52
2018-08-10T10:35:49.807Z,26.09
2018-08-10T10:38:19.616Z,24.99
2018-08-10T10:40:49.319Z,24.31
2018-08-10T10:43:19.076Z,23.56
2018-08-10T10:45:48.755Z,25.68
2018-08-10T10:48:18.486Z,27.79
2018-08-10T10:50:48.404Z,29.34
2018-08-10T10:53:18.058Z,29.36
2018-08-10T10:55:47.770Z,27.99
2018-08-10T10:58:17.539Z,26.67
2018-08-10T11:00:47.490Z,25.72
2018-08-10T11:03:17.233Z,25.52
2018-08-10T11:05:46.962Z,24.38
2018-08-10T11:08:16.679Z,25.80
2018-08-10T11:10:46.540Z,25.98
2018-08-10T11:13:16.328Z,28.20
2018-08-10T11:15:46.081Z,29.40
2018-08-10T11:18:15.853Z,28.48
2018-08-10T11:20:45.516Z,28.75
2018-08-10T11:23:15.363Z,26.21
2018-08-10T11:25:45.250Z,26.20
2018-08-10T11:28:14.861Z,26.22
2018-08-10T11:30:44.537Z,27.58
2018-08-10T11:33:14.243Z,27.87
2018-08-10T11:35:43.936Z,26.86
2018-08-10T11:38:13.623Z,25.88
2018-08-10T11:40:43.317Z,27.89
2018-08-10T11:43:13.081Z,26.86
2018-08-10T11:45:42.853Z,25.59
2018-08-10T11:48:12.520Z,25.27
2018-08-10T11:50:42.296Z,25.78
2018-08-10T11:53:11.982Z,27.72
2018-08-10T11:55:41.704Z,28.43
2018-08-10T11:58:11.413Z,29.53
2018-08-10T12:00:41.129Z,29.18
2018-08-10T12:03:10.860Z,30.29
2018-08-10T12:05:40.782Z,28.82
2018-08-10T12:08:10.467Z,29.08
2018-08-10T12:10:40.239Z,28.40
2018-08-10T12:13:09.938Z,28.31
2018-08-10T12:15:39.719Z,28.37
2018-08-10T12:18:09.380Z,29.94
2018-08-10T12:20:39.154Z,28.81
2018-08-10T12:23:08.818Z,28.89
2018-08-10T12:25:38.510Z,29.02
2018-08-10T12:28:08.310Z,28.70
2018-08-10T12:30:38.099Z,26.64
2018-08-10T12:33:08.356Z,26.44
2018-08-10T12:35:38.053Z,25.59
2018-08-10T12:38:07.737Z,25.25
2018-08-10T12:40:37.424Z,26.30
2018-08-10T12:43:07.209Z,26.32
2018-08-10T12:45:36.934Z,27.69
2018-08-10T12:48:07.349Z,28.69
2018-08-10T12:50:37.303Z,28.67
2018-08-10T12:53:07.025Z,29.58
2018-08-10T12:55:36.837Z,29.42
2018-08-10T12:58:06.725Z,27.89
2018-08-10T13:00:36.386Z,26.71
2018-08-10T13:03:06.107Z,28.17
2018-08-10T13:05:35.809Z,29.75
2018-08-10T13:08:05.568Z,29.63
2018-08-10T13:10:35.216Z,28.85
2018-08-10T13:13:04.994Z,28.13
2018-08-10T13:15:34.797Z,28.13
2018-08-10T13:18:04.945Z,29.23
2018-08-10T13:20:34.796Z,28.70
2018-08-10T13:23:04.526Z,29.40
2018-08-10T13:25:34.404Z,28.86
2018-08-10T13:28:04.124Z,27.61
2018-08-10T13:30:33.885Z,29.26
2018-08-10T13:33:03.694Z,29.76
2018-08-10T13:35:33.439Z,29.50
2018-08-10T13:38:03.081Z,28.73
2018-08-10T13:40:32.764Z,28.56
2018-08-10T13:43:02.441Z,27.62
2018-08-10T13:45:32.185Z,27.50
2018-08-10T13:48:01.854Z,28.47
2018-08-10T13:50:31.702Z,29.53
2018-08-10T13:53:01.421Z,28.56
2018-08-10T13:55:31.100Z,27.40
2018-08-10T13:58:00.911Z,27.58
2018-08-10T14:00:30.566Z,28.44
2018-08-10T14:03:00.285Z,29.62
2018-08-10T14:05:30.083Z,29.67
2018-08-10T14:07:59.804Z,28.99
2018-08-10T14:10:29.762Z,29.99
2018-08-10T14:12:59.547Z,30.15
2018-08-10T14:15:29.279Z,30.06
2018-08-10T14:17:59.009Z,30.95
2018-08-10T14:20:28.696Z,29.28
2018-08-10T14:22:58.369Z,27.24
2018-08-10T14:25:28.321Z,27.06
2018-08-10T14:27:58.097Z,28.28
2018-08-10T14:30:27.857Z,27.81
2018-08-10T14:32:57.574Z,27.68
2018-08-10T14:35:27.290Z,26.74
2018-08-10T14:37:57.134Z,26.27
2018-08-10T14:40:26.908Z,26.71
2018-08-10T14:42:56.778Z,28.41
2018-08-10T14:45:26.561Z,28.21
2018-08-10T14:47:56.248Z,26.44
2018-08-10T14:50:25.996Z,26.64
2018-08-10T14:52:55.881Z,28.14
2018-08-10T14:55:25.597Z,29.23
2018-08-10T14:57:55.311Z,29.31
2018-08-10T15:00:25.117Z,29.39
2018-08-10T15:02:54.865Z,29.23
2018-08-10T15:05:24.714Z,28.76
2018-08-10T15:07:54.500Z,28.16
2018-08-10T15:10:24.356Z,27.50
2018-08-10T15:12:54.477Z,28.20
2018-08-10T15:15:23.951Z,28.72
2018-08-10T15:17:53.667Z,27.87
2018-08-10T15:20:23.394Z,26.81
2018-08-10T15:22:53.265Z,26.02
2018-08-10T15:25:23.139Z,26.96
2018-08-10T15:27:53.692Z,28.14
2018-08-10T15:30:23.545Z,28.40
2018-08-10T15:32:53.261Z,27.85
2018-08-10T15:35:23.152Z,26.22
2018-08-10T15:37:53.128Z,26.25
2018-08-10T15:40:22.876Z,25.72
2018-08-10T15:42:52.757Z,25.74
2018-08-10T15:45:22.616Z,26.28
2018-08-10T15:47:52.423Z,25.77
2018-08-10T15:50:22.093Z,25.88
2018-08-10T15:52:51.957Z,25.33
2018-08-10T15:55:21.860Z,26.10
2018-08-10T15:57:51.645Z,25.85
2018-08-10T16:00:23.171Z,25.04
2018-08-10T16:02:53.097Z,25.19
2018-08-10T16:05:22.959Z,25.12
2018-08-10T16:07:52.850Z,25.04
2018-08-10T16:10:22.671Z,25.06
2018-08-10T16:12:52.456Z,24.81
2018-08-10T16:15:22.187Z,24.93
2018-08-10T16:17:51.946Z,24.68
2018-08-10T16:20:22.975Z,24.75
2018-08-10T16:22:52.897Z,24.39
2018-08-10T16:25:22.632Z,24.42
2018-08-10T16:27:52.482Z,24.37
2018-08-10T16:30:47.845Z,24.27
2018-08-10T16:33:17.501Z,24.25
2018-08-10T16:35:47.300Z,24.20
2018-08-10T16:38:17.032Z,24.41
2018-08-10T16:40:46.931Z,24.25
2018-08-10T16:43:16.602Z,24.06
2018-08-10T16:45:46.269Z,24.40
2018-08-10T16:48:15.981Z,24.42
2018-08-10T16:50:45.787Z,24.27
2018-08-10T16:53:15.469Z,24.20
2018-08-10T16:55:45.249Z,24.28
2018-08-10T16:58:14.960Z,24.18
2018-08-10T17:00:44.853Z,23.89
2018-08-10T17:03:14.670Z,23.82
2018-08-10T17:05:44.348Z,23.60
2018-08-10T17:08:14.120Z,23.43
2018-08-10T17:10:43.804Z,23.30
2018-08-10T17:13:13.476Z,23.39
2018-08-10T17:15:43.149Z,23.53
2018-08-10T17:18:12.958Z,23.52
2018-08-10T17:20:42.648Z,23.57
2018-08-10T17:23:12.432Z,23.71
2018-08-10T17:25:42.244Z,23.84
2018-08-10T17:28:12.001Z,23.82
2018-08-10T17:30:41.771Z,24.01
2018-08-10T17:33:11.477Z,24.04
2018-08-10T17:35:41.196Z,23.88
2018-08-10T17:38:10.895Z,23.84
2018-08-10T17:40:40.645Z,23.79
2018-08-10T17:43:10.400Z,23.66
2018-08-10T17:45:40.152Z,23.39
2018-08-10T17:48:09.922Z,23.37
2018-08-10T17:50:39.695Z,23.30
2018-08-10T17:53:09.511Z,23.09
2018-08-10T17:55:39.315Z,23.10
2018-08-10T17:58:09.041Z,22.90
2018-08-10T18:00:38.815Z,22.76
2018-08-10T18:03:08.617Z,22.73
2018-08-10T18:05:38.517Z,22.69
2018-08-10T18:08:08.409Z,22.46
2018-08-10T18:10:38.208Z,22.40
2018-08-10T18:13:08.105Z,22.46
2018-08-10T18:15:37.836Z,22.46
2018-08-10T18:18:07.914Z,22.31
2018-08-10T18:20:37.645Z,22.35
2018-08-10T18:23:08.202Z,22.24
2018-08-10T18:25:37.929Z,22.16
2018-08-10T18:28:07.842Z,22.14
2018-08-10T18:30:37.648Z,22.03
2018-08-10T18:33:08.185Z,21.95
2018-08-10T18:35:37.900Z,22.02
2018-08-10T18:38:07.732Z,22.02
2018-08-10T18:40:37.557Z,22.06
2018-08-10T18:43:07.544Z,22.00
2018-08-10T18:45:37.317Z,21.95
2018-08-10T18:48:07.172Z,21.97
2018-08-10T18:50:37.011Z,21.98
2018-08-10T18:53:06.789Z,21.92
2018-08-10T18:55:36.574Z,21.89
2018-08-10T18:58:06.486Z,21.80
2018-08-10T19:00:36.198Z,21.78
2018-08-10T19:03:06.178Z,21.64
2018-08-10T19:05:36.005Z,21.85
2018-08-10T19:08:05.878Z,21.56
2018-08-10T19:10:35.681Z,21.46
2018-08-10T19:13:05.367Z,21.44
2018-08-10T19:15:35.074Z,21.42
2018-08-10T19:18:05.857Z,21.30
2018-08-10T19:20:35.861Z,21.34
2018-08-10T19:23:05.759Z,21.23
2018-08-10T19:25:35.530Z,21.35
2018-08-10T19:28:05.393Z,21.35
2018-08-10T19:30:35.152Z,21.27
2018-08-10T19:33:04.769Z,21.14
2018-08-10T19:35:34.629Z,21.22
2018-08-10T19:38:04.356Z,21.10
2018-08-10T19:40:34.083Z,21.02
2018-08-10T19:43:03.906Z,20.93
2018-08-10T19:45:33.663Z,20.99
2018-08-10T19:48:03.437Z,20.92
2018-08-10T19:50:33.137Z,20.80
2018-08-10T19:53:03.014Z,20.68
2018-08-10T19:55:32.982Z,20.57
2018-08-10T19:58:02.757Z,20.53
2018-08-10T20:00:32.422Z,20.58
2018-08-10T20:03:02.238Z,20.54
2018-08-10T20:05:32.099Z,20.43
2018-08-10T20:08:01.824Z,20.30
2018-08-10T20:10:31.589Z,20.37
2018-08-10T20:13:01.296Z,20.45
2018-08-10T20:15:31.192Z,20.36
2018-08-10T20:18:00.854Z,20.38
2018-08-10T20:20:30.670Z,20.24
2018-08-10T20:23:00.648Z,20.20
2018-08-10T20:25:30.379Z,20.23
2018-08-10T20:28:00.257Z,20.16
2018-08-10T20:30:30.108Z,20.13
2018-08-10T20:32:59.878Z,20.06
2018-08-10T20:35:29.805Z,20.14
2018-08-10T20:37:59.469Z,20.07
2018-08-10T20:40:29.569Z,19.94
2018-08-10T20:42:59.527Z,20.01
2018-08-10T20:45:29.474Z,20.02
2018-08-10T20:47:59.341Z,20.01
2018-08-10T20:50:29.155Z,19.88
2018-08-10T20:52:59.096Z,19.94
2018-08-10T20:55:28.928Z,19.89
2018-08-10T20:57:58.707Z,19.93
2018-08-10T21:00:28.462Z,19.78
2018-08-10T21:02:58.485Z,19.57
2018-08-10T21:05:28.188Z,19.51
2018-08-10T21:07:57.882Z,19.61
2018-08-10T21:10:27.650Z,19.63
2018-08-10T21:12:57.331Z,19.78
2018-08-10T21:15:27.167Z,19.74
2018-08-10T21:17:56.860Z,19.93
2018-08-10T21:20:26.611Z,19.86
2018-08-10T21:22:56.334Z,19.79
2018-08-10T21:25:26.141Z,19.76
2018-08-10T21:27:55.822Z,19.71
2018-08-10T21:30:25.574Z,19.63
2018-08-10T21:32:55.305Z,19.65
2018-08-10T21:35:24.989Z,19.59
2018-08-10T21:37:54.772Z,19.55
2018-08-10T21:40:24.491Z,19.62
2018-08-10T21:42:54.445Z,19.49
2018-08-10T21:45:24.158Z,19.47
2018-08-10T21:47:53.962Z,19.44
2018-08-10T21:50:23.733Z,19.36
2018-08-10T21:52:53.580Z,19.28
2018-08-10T21:55:23.281Z,19.27
2018-08-10T21:57:53.158Z,19.25
2018-08-10T22:00:50.087Z,19.35
2018-08-10T22:03:22.101Z,19.16
2018-08-10T22:05:52.062Z,19.17
2018-08-10T22:08:22.648Z,19.15
2018-08-10T22:10:52.466Z,18.98
2018-08-10T22:13:27.275Z,18.94
2018-08-10T22:16:02.446Z,18.87
2018-08-10T22:18:37.433Z,18.95
2018-08-10T22:21:07.189Z,18.99
2018-08-10T22:23:36.926Z,18.88
2018-08-10T22:26:06.758Z,18.78
2018-08-10T22:28:36.478Z,18.75
2018-08-10T22:31:06.332Z,18.78
2018-08-10T22:33:36.020Z,18.71
2018-08-10T22:36:05.802Z,18.79
2018-08-10T22:38:35.553Z,18.69
2018-08-10T22:41:05.594Z,18.67
2018-08-10T22:43:35.401Z,18.65
2018-08-10T22:46:05.397Z,18.50
2018-08-10T22:48:35.163Z,18.50
2018-08-10T22:51:04.957Z,18.43
2018-08-10T22:53:34.938Z,18.40
2018-08-10T22:56:04.978Z,18.42
2018-08-10T22:58:34.933Z,18.47
2018-08-10T23:01:05.062Z,18.35
2018-08-10T23:03:34.969Z,18.26
2018-08-10T23:06:04.783Z,18.19
2018-08-10T23:08:34.878Z,18.25
2018-08-10T23:11:04.564Z,18.18
2018-08-10T23:13:34.379Z,18.13
2018-08-10T23:16:04.129Z,18.08
2018-08-10T23:18:33.982Z,18.03
2018-08-10T23:21:03.905Z,18.11
2018-08-10T23:23:33.642Z,17.95
2018-08-10T23:26:03.553Z,18.00
2018-08-10T23:28:33.481Z,18.00
2018-08-10T23:31:03.451Z,18.04
2018-08-10T23:33:33.263Z,17.95
2018-08-10T23:36:03.245Z,18.05
2018-08-10T23:38:33.240Z,18.06
2018-08-10T23:41:03.076Z,18.09
2018-08-10T23:43:32.838Z,18.18
2018-08-10T23:46:02.776Z,18.24
2018-08-10T23:48:32.461Z,18.18
2018-08-10T23:51:02.307Z,18.26
2018-08-10T23:53:32.069Z,18.22
2018-08-10T23:56:01.852Z,18.20
2018-08-10T23:58:31.587Z,18.19
